KBRY/BRY METAR and TAF weather

Enter ICAO airport designator
Station Type Date Time Source
KBRY METAR 2021/04/17 02:55 UTC NOAA

KBRY 170255Z AUTO 00000KT 10SM CLR 10/03 A2990 RMK AO1


Station Type Date Time Source
KBRY Decoded METAR 2021/04/17 02:55 UTC NOAA

Station name not available
Apr 16, 2021 - 10:55 PM EDT / 2021.04.17 0255 UTC
Wind: Calm:0
Visibility: 10 mile(s):0
Sky conditions: clear
Temperature: 50 F (10 C)
Dew Point: 37 F (3 C)
Relative Humidity: 61%
Pressure (altimeter): 29.9 in. Hg (1012 hPa)
ob: KBRY 170255Z AUTO 00000KT 10SM CLR 10/03 A2990 RMK AO1
cycle: 3

Station Type Date Time Source
KBRY TAF UTC NOAA

Error!

Example: see airport list